sensor_id;sensor_type;location;lat;lon;timestamp;P1;durP1;ratioP1;P2;durP2;ratioP2
24435;SDS011;12616;52.470;13.436;2023-06-14T00:02:20;4.73;;;2.97;;
24435;SDS011;12616;52.470;13.436;2023-06-14T00:04:47;3.33;;;3.03;;
24435;SDS011;12616;52.470;13.436;2023-06-14T00:07:16;3.17;;;2.90;;
24435;SDS011;12616;52.470;13.436;2023-06-14T00:09:43;6.50;;;3.70;;
24435;SDS011;12616;52.470;13.436;2023-06-14T00:12:10;2.70;;;2.50;;
24435;SDS011;12616;52.470;13.436;2023-06-14T00:14:37;6.27;;;3.10;;
24435;SDS011;12616;52.470;13.436;2023-06-14T00:17:05;4.40;;;2.90;;
24435;SDS011;12616;52.470;13.436;2023-06-14T00:19:33;3.73;;;3.43;;
24435;SDS011;12616;52.470;13.436;2023-06-14T00:22:01;3.70;;;3.30;;
24435;SDS011;12616;52.470;13.436;2023-06-14T00:24:28;3.00;;;2.70;;
24435;SDS011;12616;52.470;13.436;2023-06-14T00:26:56;3.37;;;3.13;;
24435;SDS011;12616;52.470;13.436;2023-06-14T00:29:23;3.43;;;3.23;;
24435;SDS011;12616;52.470;13.436;2023-06-14T00:31:50;3.40;;;3.10;;
24435;SDS011;12616;52.470;13.436;2023-06-14T00:34:17;9.50;;;3.90;;
24435;SDS011;12616;52.470;13.436;2023-06-14T00:36:46;4.00;;;3.70;;
24435;SDS011;12616;52.470;13.436;2023-06-14T00:39:13;4.00;;;3.50;;
24435;SDS011;12616;52.470;13.436;2023-06-14T00:41:39;3.70;;;3.40;;
24435;SDS011;12616;52.470;13.436;2023-06-14T00:44:06;4.40;;;3.80;;
24435;SDS011;12616;52.470;13.436;2023-06-14T00:46:33;7.17;;;3.60;;
24435;SDS011;12616;52.470;13.436;2023-06-14T00:49:00;7.53;;;4.47;;
24435;SDS011;12616;52.470;13.436;2023-06-14T00:51:28;3.67;;;3.27;;
24435;SDS011;12616;52.470;13.436;2023-06-14T00:53:56;4.47;;;4.03;;
24435;SDS011;12616;52.470;13.436;2023-06-14T00:56:23;4.23;;;3.83;;
24435;SDS011;12616;52.470;13.436;2023-06-14T00:58:53;4.53;;;3.80;;
24435;SDS011;12616;52.470;13.436;2023-06-14T01:01:21;4.10;;;3.70;;
24435;SDS011;12616;52.470;13.436;2023-06-14T01:03:49;8.37;;;4.67;;
24435;SDS011;12616;52.470;13.436;2023-06-14T01:06:18;4.97;;;4.00;;
24435;SDS011;12616;52.470;13.436;2023-06-14T01:09:01;4.40;;;4.00;;
24435;SDS011;12616;52.470;13.436;2023-06-14T01:11:36;6.07;;;3.70;;
24435;SDS011;12616;52.470;13.436;2023-06-14T01:14:07;4.63;;;3.97;;
24435;SDS011;12616;52.470;13.436;2023-06-14T01:16:35;5.50;;;4.47;;
24435;SDS011;12616;52.470;13.436;2023-06-14T01:19:04;4.60;;;4.20;;
24435;SDS011;12616;52.470;13.436;2023-06-14T01:21:37;4.73;;;4.33;;
24435;SDS011;12616;52.470;13.436;2023-06-14T01:24:08;5.90;;;5.40;;
24435;SDS011;12616;52.470;13.436;2023-06-14T01:26:36;6.93;;;3.70;;
24435;SDS011;12616;52.470;13.436;2023-06-14T01:29:07;5.73;;;3.97;;
24435;SDS011;12616;52.470;13.436;2023-06-14T01:31:36;7.03;;;4.50;;
24435;SDS011;12616;52.470;13.436;2023-06-14T01:34:06;6.10;;;5.33;;
24435;SDS011;12616;52.470;13.436;2023-06-14T01:36:35;5.13;;;4.50;;
24435;SDS011;12616;52.470;13.436;2023-06-14T01:39:08;4.43;;;4.00;;
24435;SDS011;12616;52.470;13.436;2023-06-14T01:41:36;6.30;;;4.57;;
24435;SDS011;12616;52.470;13.436;2023-06-14T01:44:03;8.13;;;5.37;;
24435;SDS011;12616;52.470;13.436;2023-06-14T01:46:31;8.10;;;5.40;;
24435;SDS011;12616;52.470;13.436;2023-06-14T01:48:59;5.27;;;4.77;;
24435;SDS011;12616;52.470;13.436;2023-06-14T01:51:26;5.63;;;5.00;;
24435;SDS011;12616;52.470;13.436;2023-06-14T01:53:53;5.07;;;4.67;;
24435;SDS011;12616;52.470;13.436;2023-06-14T01:56:21;5.73;;;5.23;;
24435;SDS011;12616;52.470;13.436;2023-06-14T01:58:48;5.30;;;4.83;;
24435;SDS011;12616;52.470;13.436;2023-06-14T02:01:16;5.20;;;4.80;;
24435;SDS011;12616;52.470;13.436;2023-06-14T02:03:46;5.43;;;4.80;;
24435;SDS011;12616;52.470;13.436;2023-06-14T02:06:14;4.97;;;4.47;;
24435;SDS011;12616;52.470;13.436;2023-06-14T02:08:44;8.20;;;5.47;;
24435;SDS011;12616;52.470;13.436;2023-06-14T02:11:11;5.87;;;4.90;;
24435;SDS011;12616;52.470;13.436;2023-06-14T02:13:39;5.13;;;4.73;;
24435;SDS011;12616;52.470;13.436;2023-06-14T02:16:06;6.80;;;6.10;;
24435;SDS011;12616;52.470;13.436;2023-06-14T02:18:33;5.67;;;5.20;;
24435;SDS011;12616;52.470;13.436;2023-06-14T02:20:59;9.50;;;4.80;;
24435;SDS011;12616;52.470;13.436;2023-06-14T02:23:26;7.03;;;5.10;;
24435;SDS011;12616;52.470;13.436;2023-06-14T02:25:53;7.83;;;5.33;;
24435;SDS011;12616;52.470;13.436;2023-06-14T02:28:20;6.50;;;5.60;;
24435;SDS011;12616;52.470;13.436;2023-06-14T02:30:48;6.57;;;5.90;;
24435;SDS011;12616;52.470;13.436;2023-06-14T02:33:15;6.93;;;6.33;;
24435;SDS011;12616;52.470;13.436;2023-06-14T02:35:42;6.37;;;5.80;;
24435;SDS011;12616;52.470;13.436;2023-06-14T02:38:12;6.17;;;5.00;;
24435;SDS011;12616;52.470;13.436;2023-06-14T02:40:42;6.07;;;5.47;;
24435;SDS011;12616;52.470;13.436;2023-06-14T02:43:09;6.40;;;5.80;;
24435;SDS011;12616;52.470;13.436;2023-06-14T02:45:36;5.97;;;5.53;;
24435;SDS011;12616;52.470;13.436;2023-06-14T02:48:04;6.83;;;6.13;;
24435;SDS011;12616;52.470;13.436;2023-06-14T02:50:31;6.67;;;6.07;;
24435;SDS011;12616;52.470;13.436;2023-06-14T02:52:58;8.10;;;6.30;;
24435;SDS011;12616;52.470;13.436;2023-06-14T02:55:25;5.80;;;5.03;;
24435;SDS011;12616;52.470;13.436;2023-06-14T02:57:52;7.70;;;6.90;;
24435;SDS011;12616;52.470;13.436;2023-06-14T03:00:19;5.90;;;5.03;;
24435;SDS011;12616;52.470;13.436;2023-06-14T03:02:46;7.33;;;6.10;;
24435;SDS011;12616;52.470;13.436;2023-06-14T03:05:15;9.10;;;5.90;;
24435;SDS011;12616;52.470;13.436;2023-06-14T03:07:46;10.80;;;5.47;;
24435;SDS011;12616;52.470;13.436;2023-06-14T03:10:13;7.40;;;6.67;;
24435;SDS011;12616;52.470;13.436;2023-06-14T03:12:39;6.40;;;5.10;;
24435;SDS011;12616;52.470;13.436;2023-06-14T03:15:07;6.93;;;6.10;;
24435;SDS011;12616;52.470;13.436;2023-06-14T03:17:36;6.47;;;5.87;;
24435;SDS011;12616;52.470;13.436;2023-06-14T03:20:04;6.67;;;5.73;;
24435;SDS011;12616;52.470;13.436;2023-06-14T03:22:34;7.50;;;6.70;;
24435;SDS011;12616;52.470;13.436;2023-06-14T03:25:02;6.77;;;6.07;;
24435;SDS011;12616;52.470;13.436;2023-06-14T03:27:30;7.70;;;6.47;;
24435;SDS011;12616;52.470;13.436;2023-06-14T03:29:57;8.43;;;6.47;;
24435;SDS011;12616;52.470;13.436;2023-06-14T03:32:23;6.90;;;6.20;;
24435;SDS011;12616;52.470;13.436;2023-06-14T03:34:50;7.30;;;5.80;;
24435;SDS011;12616;52.470;13.436;2023-06-14T03:37:17;12.47;;;6.90;;
24435;SDS011;12616;52.470;13.436;2023-06-14T03:39:45;7.80;;;6.20;;
24435;SDS011;12616;52.470;13.436;2023-06-14T03:42:13;8.40;;;5.70;;
24435;SDS011;12616;52.470;13.436;2023-06-14T03:44:40;7.93;;;6.80;;
24435;SDS011;12616;52.470;13.436;2023-06-14T03:47:07;8.17;;;7.37;;
24435;SDS011;12616;52.470;13.436;2023-06-14T03:49:34;7.50;;;6.17;;
24435;SDS011;12616;52.470;13.436;2023-06-14T03:52:02;7.23;;;6.37;;
24435;SDS011;12616;52.470;13.436;2023-06-14T03:54:29;10.30;;;7.00;;
24435;SDS011;12616;52.470;13.436;2023-06-14T03:56:59;10.00;;;6.37;;
24435;SDS011;12616;52.470;13.436;2023-06-14T03:59:25;8.30;;;6.97;;
24435;SDS011;12616;52.470;13.436;2023-06-14T04:01:53;7.63;;;5.67;;
24435;SDS011;12616;52.470;13.436;2023-06-14T04:04:20;7.80;;;7.07;;
24435;SDS011;12616;52.470;13.436;2023-06-14T04:06:54;9.10;;;7.13;;
24435;SDS011;12616;52.470;13.436;2023-06-14T04:09:21;6.80;;;6.20;;
24435;SDS011;12616;52.470;13.436;2023-06-14T04:11:51;13.07;;;6.77;;
24435;SDS011;12616;52.470;13.436;2023-06-14T04:14:19;12.40;;;8.37;;
24435;SDS011;12616;52.470;13.436;2023-06-14T04:16:47;26.90;;;11.10;;
24435;SDS011;12616;52.470;13.436;2023-06-14T04:19:14;8.33;;;7.30;;
24435;SDS011;12616;52.470;13.436;2023-06-14T04:21:43;7.77;;;6.93;;
24435;SDS011;12616;52.470;13.436;2023-06-14T04:24:10;8.90;;;7.20;;
24435;SDS011;12616;52.470;13.436;2023-06-14T04:26:38;10.53;;;8.07;;
24435;SDS011;12616;52.470;13.436;2023-06-14T04:29:06;9.63;;;7.30;;
24435;SDS011;12616;52.470;13.436;2023-06-14T04:31:34;10.03;;;7.07;;
24435;SDS011;12616;52.470;13.436;2023-06-14T04:34:02;7.97;;;7.00;;
24435;SDS011;12616;52.470;13.436;2023-06-14T04:36:30;10.73;;;7.53;;
24435;SDS011;12616;52.470;13.436;2023-06-14T04:39:00;8.17;;;7.40;;
24435;SDS011;12616;52.470;13.436;2023-06-14T04:41:28;9.03;;;8.23;;
24435;SDS011;12616;52.470;13.436;2023-06-14T04:43:55;12.07;;;8.17;;
24435;SDS011;12616;52.470;13.436;2023-06-14T04:46:26;8.47;;;7.60;;
24435;SDS011;12616;52.470;13.436;2023-06-14T04:48:55;8.00;;;7.20;;
24435;SDS011;12616;52.470;13.436;2023-06-14T04:51:22;8.53;;;7.63;;
24435;SDS011;12616;52.470;13.436;2023-06-14T04:53:54;12.00;;;6.83;;
24435;SDS011;12616;52.470;13.436;2023-06-14T04:56:23;8.10;;;7.30;;
24435;SDS011;12616;52.470;13.436;2023-06-14T04:58:51;7.63;;;6.93;;
24435;SDS011;12616;52.470;13.436;2023-06-14T05:01:18;8.30;;;7.50;;
24435;SDS011;12616;52.470;13.436;2023-06-14T05:03:46;8.10;;;7.30;;
24435;SDS011;12616;52.470;13.436;2023-06-14T05:06:15;9.87;;;7.40;;
24435;SDS011;12616;52.470;13.436;2023-06-14T05:08:42;7.00;;;6.37;;
24435;SDS011;12616;52.470;13.436;2023-06-14T05:11:09;9.67;;;8.67;;
24435;SDS011;12616;52.470;13.436;2023-06-14T05:13:36;8.97;;;6.73;;
24435;SDS011;12616;52.470;13.436;2023-06-14T05:16:04;7.83;;;7.00;;
24435;SDS011;12616;52.470;13.436;2023-06-14T05:18:32;9.73;;;7.43;;
24435;SDS011;12616;52.470;13.436;2023-06-14T05:21:00;11.20;;;8.67;;
24435;SDS011;12616;52.470;13.436;2023-06-14T05:23:28;10.00;;;6.73;;
24435;SDS011;12616;52.470;13.436;2023-06-14T05:25:58;10.07;;;7.97;;
24435;SDS011;12616;52.470;13.436;2023-06-14T05:28:27;7.60;;;6.90;;
24435;SDS011;12616;52.470;13.436;2023-06-14T05:30:55;8.47;;;7.57;;
24435;SDS011;12616;52.470;13.436;2023-06-14T05:33:23;6.87;;;6.27;;
24435;SDS011;12616;52.470;13.436;2023-06-14T05:35:50;10.43;;;6.63;;
24435;SDS011;12616;52.470;13.436;2023-06-14T05:38:16;7.93;;;7.07;;
24435;SDS011;12616;52.470;13.436;2023-06-14T05:40:45;11.87;;;8.97;;
24435;SDS011;12616;52.470;13.436;2023-06-14T05:43:11;7.57;;;6.97;;
24435;SDS011;12616;52.470;13.436;2023-06-14T05:45:38;18.23;;;7.67;;
24435;SDS011;12616;52.470;13.436;2023-06-14T05:48:05;9.70;;;7.10;;
24435;SDS011;12616;52.470;13.436;2023-06-14T05:50:32;7.80;;;7.00;;
24435;SDS011;12616;52.470;13.436;2023-06-14T05:52:59;8.20;;;7.40;;
24435;SDS011;12616;52.470;13.436;2023-06-14T05:55:26;10.60;;;7.83;;
24435;SDS011;12616;52.470;13.436;2023-06-14T05:57:54;10.60;;;9.50;;
24435;SDS011;12616;52.470;13.436;2023-06-14T06:00:21;9.50;;;7.77;;
24435;SDS011;12616;52.470;13.436;2023-06-14T06:02:48;8.63;;;7.10;;
24435;SDS011;12616;52.470;13.436;2023-06-14T06:05:15;12.50;;;8.00;;
24435;SDS011;12616;52.470;13.436;2023-06-14T06:07:42;9.63;;;8.00;;
24435;SDS011;12616;52.470;13.436;2023-06-14T06:10:10;8.00;;;7.23;;
24435;SDS011;12616;52.470;13.436;2023-06-14T06:12:37;7.80;;;7.07;;
24435;SDS011;12616;52.470;13.436;2023-06-14T06:15:06;7.33;;;6.63;;
24435;SDS011;12616;52.470;13.436;2023-06-14T06:17:37;10.40;;;8.00;;
24435;SDS011;12616;52.470;13.436;2023-06-14T06:20:04;8.23;;;7.40;;
24435;SDS011;12616;52.470;13.436;2023-06-14T06:22:33;16.03;;;8.17;;
24435;SDS011;12616;52.470;13.436;2023-06-14T06:25:00;11.33;;;6.73;;
24435;SDS011;12616;52.470;13.436;2023-06-14T06:27:28;7.63;;;6.83;;
24435;SDS011;12616;52.470;13.436;2023-06-14T06:29:55;8.57;;;7.10;;
24435;SDS011;12616;52.470;13.436;2023-06-14T06:32:23;9.60;;;7.27;;
24435;SDS011;12616;52.470;13.436;2023-06-14T06:34:53;7.90;;;6.73;;
24435;SDS011;12616;52.470;13.436;2023-06-14T06:37:24;8.50;;;7.57;;
24435;SDS011;12616;52.470;13.436;2023-06-14T06:39:53;10.63;;;6.37;;
24435;SDS011;12616;52.470;13.436;2023-06-14T06:42:20;11.70;;;8.20;;
24435;SDS011;12616;52.470;13.436;2023-06-14T06:44:47;10.90;;;7.70;;
24435;SDS011;12616;52.470;13.436;2023-06-14T06:47:14;9.13;;;7.83;;
24435;SDS011;12616;52.470;13.436;2023-06-14T06:49:42;8.03;;;6.40;;
24435;SDS011;12616;52.470;13.436;2023-06-14T06:52:09;8.13;;;7.03;;
24435;SDS011;12616;52.470;13.436;2023-06-14T06:54:36;12.40;;;6.90;;
24435;SDS011;12616;52.470;13.436;2023-06-14T06:57:03;7.93;;;6.80;;
24435;SDS011;12616;52.470;13.436;2023-06-14T06:59:31;9.97;;;6.90;;
24435;SDS011;12616;52.470;13.436;2023-06-14T07:01:58;7.67;;;6.87;;
24435;SDS011;12616;52.470;13.436;2023-06-14T07:04:24;12.43;;;7.00;;
24435;SDS011;12616;52.470;13.436;2023-06-14T07:06:53;11.10;;;6.50;;
24435;SDS011;12616;52.470;13.436;2023-06-14T07:09:20;7.70;;;6.90;;
24435;SDS011;12616;52.470;13.436;2023-06-14T07:11:49;7.90;;;7.10;;
24435;SDS011;12616;52.470;13.436;2023-06-14T07:14:16;7.80;;;6.90;;
24435;SDS011;12616;52.470;13.436;2023-06-14T07:16:43;7.83;;;7.03;;
24435;SDS011;12616;52.470;13.436;2023-06-14T07:19:09;7.00;;;6.30;;
24435;SDS011;12616;52.470;13.436;2023-06-14T07:21:36;7.10;;;6.40;;
24435;SDS011;12616;52.470;13.436;2023-06-14T07:24:05;9.60;;;6.97;;
24435;SDS011;12616;52.470;13.436;2023-06-14T07:26:33;8.17;;;7.47;;
24435;SDS011;12616;52.470;13.436;2023-06-14T07:29:00;9.20;;;7.00;;
24435;SDS011;12616;52.470;13.436;2023-06-14T07:31:27;6.77;;;5.37;;
24435;SDS011;12616;52.470;13.436;2023-06-14T07:33:54;10.53;;;6.80;;
24435;SDS011;12616;52.470;13.436;2023-06-14T07:36:21;7.00;;;6.30;;
24435;SDS011;12616;52.470;13.436;2023-06-14T07:38:48;8.50;;;7.10;;
24435;SDS011;12616;52.470;13.436;2023-06-14T07:41:16;8.03;;;6.50;;
24435;SDS011;12616;52.470;13.436;2023-06-14T07:43:43;7.33;;;6.30;;
24435;SDS011;12616;52.470;13.436;2023-06-14T07:46:10;7.07;;;6.47;;
24435;SDS011;12616;52.470;13.436;2023-06-14T07:48:37;13.80;;;6.80;;
24435;SDS011;12616;52.470;13.436;2023-06-14T07:51:04;10.10;;;6.80;;
24435;SDS011;12616;52.470;13.436;2023-06-14T07:53:31;11.77;;;7.30;;
24435;SDS011;12616;52.470;13.436;2023-06-14T07:55:58;8.80;;;5.77;;
24435;SDS011;12616;52.470;13.436;2023-06-14T07:58:26;7.60;;;5.23;;
24435;SDS011;12616;52.470;13.436;2023-06-14T08:00:53;9.73;;;5.90;;
24435;SDS011;12616;52.470;13.436;2023-06-14T08:03:20;7.30;;;6.27;;
24435;SDS011;12616;52.470;13.436;2023-06-14T08:05:47;6.37;;;5.87;;
24435;SDS011;12616;52.470;13.436;2023-06-14T08:08:14;7.50;;;6.10;;
24435;SDS011;12616;52.470;13.436;2023-06-14T08:10:41;7.90;;;5.43;;
24435;SDS011;12616;52.470;13.436;2023-06-14T08:13:08;7.40;;;5.10;;
24435;SDS011;12616;52.470;13.436;2023-06-14T08:15:37;8.77;;;5.70;;
24435;SDS011;12616;52.470;13.436;2023-06-14T08:18:04;8.53;;;5.70;;
24435;SDS011;12616;52.470;13.436;2023-06-14T08:20:31;8.53;;;5.87;;
24435;SDS011;12616;52.470;13.436;2023-06-14T08:22:58;7.93;;;5.80;;
24435;SDS011;12616;52.470;13.436;2023-06-14T08:25:24;10.80;;;5.70;;
24435;SDS011;12616;52.470;13.436;2023-06-14T08:27:52;20.20;;;8.50;;
24435;SDS011;12616;52.470;13.436;2023-06-14T08:30:19;8.57;;;7.73;;
24435;SDS011;12616;52.470;13.436;2023-06-14T08:32:47;11.33;;;6.93;;
24435;SDS011;12616;52.470;13.436;2023-06-14T08:35:14;7.43;;;6.60;;
24435;SDS011;12616;52.470;13.436;2023-06-14T08:37:41;6.00;;;5.30;;
24435;SDS011;12616;52.470;13.436;2023-06-14T08:40:17;7.60;;;5.40;;
24435;SDS011;12616;52.470;13.436;2023-06-14T08:42:48;15.93;;;5.27;;
24435;SDS011;12616;52.470;13.436;2023-06-14T08:45:20;9.40;;;5.87;;
24435;SDS011;12616;52.470;13.436;2023-06-14T08:47:48;7.73;;;5.53;;
24435;SDS011;12616;52.470;13.436;2023-06-14T08:50:18;5.93;;;5.33;;
24435;SDS011;12616;52.470;13.436;2023-06-14T08:52:47;7.07;;;4.80;;
24435;SDS011;12616;52.470;13.436;2023-06-14T08:55:20;18.53;;;6.10;;
24435;SDS011;12616;52.470;13.436;2023-06-14T08:57:51;5.40;;;4.60;;
24435;SDS011;12616;52.470;13.436;2023-06-14T09:00:21;6.53;;;5.10;;
24435;SDS011;12616;52.470;13.436;2023-06-14T09:02:51;9.33;;;4.80;;
24435;SDS011;12616;52.470;13.436;2023-06-14T09:05:21;13.87;;;5.30;;
24435;SDS011;12616;52.470;13.436;2023-06-14T09:07:48;13.60;;;5.63;;
24435;SDS011;12616;52.470;13.436;2023-06-14T09:10:15;6.50;;;4.60;;
24435;SDS011;12616;52.470;13.436;2023-06-14T09:12:43;8.17;;;4.90;;
24435;SDS011;12616;52.470;13.436;2023-06-14T09:15:10;4.37;;;3.97;;
24435;SDS011;12616;52.470;13.436;2023-06-14T09:17:37;8.20;;;4.40;;
24435;SDS011;12616;52.470;13.436;2023-06-14T09:20:07;8.23;;;4.60;;
24435;SDS011;12616;52.470;13.436;2023-06-14T09:22:35;4.87;;;4.40;;
24435;SDS011;12616;52.470;13.436;2023-06-14T09:25:03;12.80;;;4.73;;
24435;SDS011;12616;52.470;13.436;2023-06-14T09:27:30;5.23;;;4.80;;
24435;SDS011;12616;52.470;13.436;2023-06-14T09:29:58;9.23;;;5.00;;
24435;SDS011;12616;52.470;13.436;2023-06-14T09:32:25;5.40;;;4.90;;
24435;SDS011;12616;52.470;13.436;2023-06-14T09:34:52;10.80;;;4.97;;
24435;SDS011;12616;52.470;13.436;2023-06-14T09:37:29;8.87;;;4.37;;
24435;SDS011;12616;52.470;13.436;2023-06-14T09:39:58;5.53;;;3.50;;
24435;SDS011;12616;52.470;13.436;2023-06-14T09:42:25;5.77;;;4.13;;
24435;SDS011;12616;52.470;13.436;2023-06-14T09:44:54;5.30;;;4.80;;
24435;SDS011;12616;52.470;13.436;2023-06-14T09:47:22;7.33;;;4.83;;
24435;SDS011;12616;52.470;13.436;2023-06-14T09:49:50;4.80;;;4.40;;
24435;SDS011;12616;52.470;13.436;2023-06-14T09:52:19;4.60;;;4.20;;
24435;SDS011;12616;52.470;13.436;2023-06-14T09:54:48;6.57;;;4.20;;
24435;SDS011;12616;52.470;13.436;2023-06-14T09:57:16;6.27;;;4.83;;
24435;SDS011;12616;52.470;13.436;2023-06-14T09:59:48;9.10;;;7.60;;
24435;SDS011;12616;52.470;13.436;2023-06-14T10:02:21;8.37;;;5.83;;
24435;SDS011;12616;52.470;13.436;2023-06-14T10:04:51;9.40;;;6.27;;
24435;SDS011;12616;52.470;13.436;2023-06-14T10:07:25;7.53;;;5.57;;
24435;SDS011;12616;52.470;13.436;2023-06-14T10:09:56;5.20;;;4.70;;
24435;SDS011;12616;52.470;13.436;2023-06-14T10:12:24;8.20;;;6.87;;
24435;SDS011;12616;52.470;13.436;2023-06-14T10:14:52;10.43;;;5.27;;
24435;SDS011;12616;52.470;13.436;2023-06-14T10:17:21;10.53;;;5.83;;
24435;SDS011;12616;52.470;13.436;2023-06-14T10:19:54;6.60;;;4.80;;
24435;SDS011;12616;52.470;13.436;2023-06-14T10:22:26;7.83;;;5.17;;
24435;SDS011;12616;52.470;13.436;2023-06-14T10:24:59;8.77;;;4.80;;
24435;SDS011;12616;52.470;13.436;2023-06-14T10:27:27;5.57;;;4.57;;
24435;SDS011;12616;52.470;13.436;2023-06-14T10:30:02;5.30;;;4.37;;
24435;SDS011;12616;52.470;13.436;2023-06-14T10:32:30;7.20;;;5.17;;
24435;SDS011;12616;52.470;13.436;2023-06-14T10:34:59;8.73;;;4.70;;
24435;SDS011;12616;52.470;13.436;2023-06-14T10:37:27;15.20;;;5.40;;
24435;SDS011;12616;52.470;13.436;2023-06-14T10:39:54;13.50;;;5.20;;
24435;SDS011;12616;52.470;13.436;2023-06-14T10:42:23;9.83;;;4.93;;
24435;SDS011;12616;52.470;13.436;2023-06-14T10:45:01;6.27;;;5.10;;
24435;SDS011;12616;52.470;13.436;2023-06-14T10:47:28;8.80;;;5.00;;
24435;SDS011;12616;52.470;13.436;2023-06-14T10:49:56;6.00;;;5.03;;
24435;SDS011;12616;52.470;13.436;2023-06-14T10:52:29;5.83;;;4.80;;
24435;SDS011;12616;52.470;13.436;2023-06-14T10:55:06;4.73;;;4.23;;
24435;SDS011;12616;52.470;13.436;2023-06-14T10:57:41;8.37;;;4.13;;
24435;SDS011;12616;52.470;13.436;2023-06-14T11:00:11;11.33;;;4.50;;
24435;SDS011;12616;52.470;13.436;2023-06-14T11:02:50;22.53;;;5.57;;
24435;SDS011;12616;52.470;13.436;2023-06-14T11:05:23;7.80;;;4.40;;
24435;SDS011;12616;52.470;13.436;2023-06-14T11:07:56;5.10;;;4.60;;
24435;SDS011;12616;52.470;13.436;2023-06-14T11:10:36;6.80;;;4.47;;
24435;SDS011;12616;52.470;13.436;2023-06-14T11:13:06;7.50;;;4.20;;
24435;SDS011;12616;52.470;13.436;2023-06-14T11:15:33;6.20;;;4.20;;
24435;SDS011;12616;52.470;13.436;2023-06-14T11:18:04;5.30;;;4.00;;
24435;SDS011;12616;52.470;13.436;2023-06-14T11:20:34;4.90;;;3.80;;
24435;SDS011;12616;52.470;13.436;2023-06-14T11:23:06;5.23;;;4.63;;
24435;SDS011;12616;52.470;13.436;2023-06-14T11:25:32;5.00;;;4.20;;
24435;SDS011;12616;52.470;13.436;2023-06-14T11:27:59;7.70;;;4.40;;
24435;SDS011;12616;52.470;13.436;2023-06-14T11:30:31;7.60;;;6.00;;
24435;SDS011;12616;52.470;13.436;2023-06-14T11:32:58;7.50;;;4.77;;
24435;SDS011;12616;52.470;13.436;2023-06-14T11:35:25;5.63;;;4.47;;
24435;SDS011;12616;52.470;13.436;2023-06-14T11:37:52;6.93;;;4.60;;
24435;SDS011;12616;52.470;13.436;2023-06-14T11:40:23;4.90;;;4.50;;
24435;SDS011;12616;52.470;13.436;2023-06-14T11:42:54;8.17;;;4.97;;
24435;SDS011;12616;52.470;13.436;2023-06-14T11:45:25;9.27;;;5.23;;
24435;SDS011;12616;52.470;13.436;2023-06-14T11:47:55;5.63;;;3.97;;
24435;SDS011;12616;52.470;13.436;2023-06-14T11:50:23;6.93;;;4.80;;
24435;SDS011;12616;52.470;13.436;2023-06-14T11:52:53;4.73;;;4.27;;
24435;SDS011;12616;52.470;13.436;2023-06-14T11:55:20;4.53;;;3.80;;
24435;SDS011;12616;52.470;13.436;2023-06-14T11:57:48;6.03;;;4.10;;
24435;SDS011;12616;52.470;13.436;2023-06-14T12:00:16;4.73;;;4.27;;
24435;SDS011;12616;52.470;13.436;2023-06-14T12:02:52;11.10;;;4.73;;
24435;SDS011;12616;52.470;13.436;2023-06-14T12:05:22;8.17;;;4.13;;
24435;SDS011;12616;52.470;13.436;2023-06-14T12:07:57;5.00;;;3.97;;
24435;SDS011;12616;52.470;13.436;2023-06-14T12:10:25;4.67;;;4.07;;
24435;SDS011;12616;52.470;13.436;2023-06-14T12:12:56;5.20;;;3.70;;
24435;SDS011;12616;52.470;13.436;2023-06-14T12:15:24;5.57;;;4.30;;
24435;SDS011;12616;52.470;13.436;2023-06-14T12:17:54;5.63;;;4.20;;
24435;SDS011;12616;52.470;13.436;2023-06-14T12:20:23;5.70;;;4.47;;
24435;SDS011;12616;52.470;13.436;2023-06-14T12:22:56;7.30;;;6.57;;
24435;SDS011;12616;52.470;13.436;2023-06-14T12:25:26;9.00;;;5.90;;
24435;SDS011;12616;52.470;13.436;2023-06-14T12:27:56;4.87;;;4.20;;
24435;SDS011;12616;52.470;13.436;2023-06-14T12:30:23;7.17;;;4.43;;
24435;SDS011;12616;52.470;13.436;2023-06-14T12:32:50;8.03;;;4.10;;
24435;SDS011;12616;52.470;13.436;2023-06-14T12:35:17;4.27;;;3.93;;
24435;SDS011;12616;52.470;13.436;2023-06-14T12:37:46;6.87;;;4.53;;
24435;SDS011;12616;52.470;13.436;2023-06-14T12:40:13;5.23;;;4.73;;
24435;SDS011;12616;52.470;13.436;2023-06-14T12:42:41;7.00;;;5.80;;
24435;SDS011;12616;52.470;13.436;2023-06-14T12:45:12;5.10;;;4.60;;
24435;SDS011;12616;52.470;13.436;2023-06-14T12:47:39;6.23;;;5.17;;
24435;SDS011;12616;52.470;13.436;2023-06-14T12:50:07;4.80;;;4.30;;
24435;SDS011;12616;52.470;13.436;2023-06-14T12:52:34;7.00;;;4.90;;
24435;SDS011;12616;52.470;13.436;2023-06-14T12:55:03;7.53;;;6.73;;
24435;SDS011;12616;52.470;13.436;2023-06-14T12:57:31;5.30;;;4.80;;
24435;SDS011;12616;52.470;13.436;2023-06-14T13:00:01;5.70;;;5.13;;
24435;SDS011;12616;52.470;13.436;2023-06-14T13:02:29;7.77;;;4.30;;
24435;SDS011;12616;52.470;13.436;2023-06-14T13:04:56;5.00;;;3.97;;
24435;SDS011;12616;52.470;13.436;2023-06-14T13:07:23;5.83;;;4.40;;
24435;SDS011;12616;52.470;13.436;2023-06-14T13:09:51;6.83;;;4.73;;
24435;SDS011;12616;52.470;13.436;2023-06-14T13:12:20;7.00;;;4.10;;
24435;SDS011;12616;52.470;13.436;2023-06-14T13:14:47;5.83;;;5.23;;
24435;SDS011;12616;52.470;13.436;2023-06-14T13:17:14;5.90;;;4.10;;
24435;SDS011;12616;52.470;13.436;2023-06-14T13:19:41;5.70;;;4.10;;
24435;SDS011;12616;52.470;13.436;2023-06-14T13:22:08;4.80;;;4.40;;
24435;SDS011;12616;52.470;13.436;2023-06-14T13:24:35;6.80;;;4.27;;
24435;SDS011;12616;52.470;13.436;2023-06-14T13:27:02;3.87;;;3.57;;
24435;SDS011;12616;52.470;13.436;2023-06-14T13:29:31;4.90;;;4.50;;
24435;SDS011;12616;52.470;13.436;2023-06-14T13:32:00;4.70;;;4.20;;
24435;SDS011;12616;52.470;13.436;2023-06-14T13:34:28;7.47;;;4.03;;
24435;SDS011;12616;52.470;13.436;2023-06-14T13:36:55;8.63;;;5.00;;
24435;SDS011;12616;52.470;13.436;2023-06-14T13:39:24;8.40;;;4.33;;
24435;SDS011;12616;52.470;13.436;2023-06-14T13:41:50;8.53;;;4.93;;
24435;SDS011;12616;52.470;13.436;2023-06-14T13:44:17;4.70;;;4.30;;
24435;SDS011;12616;52.470;13.436;2023-06-14T13:46:47;4.63;;;4.10;;
24435;SDS011;12616;52.470;13.436;2023-06-14T13:49:15;5.00;;;4.50;;
24435;SDS011;12616;52.470;13.436;2023-06-14T13:51:43;6.10;;;4.10;;
24435;SDS011;12616;52.470;13.436;2023-06-14T13:54:11;5.67;;;4.57;;
24435;SDS011;12616;52.470;13.436;2023-06-14T13:56:38;5.20;;;3.73;;
24435;SDS011;12616;52.470;13.436;2023-06-14T13:59:09;5.20;;;4.50;;
24435;SDS011;12616;52.470;13.436;2023-06-14T14:01:36;7.47;;;4.50;;
24435;SDS011;12616;52.470;13.436;2023-06-14T14:04:05;4.00;;;3.60;;
24435;SDS011;12616;52.470;13.436;2023-06-14T14:06:32;7.80;;;4.40;;
24435;SDS011;12616;52.470;13.436;2023-06-14T14:08:59;8.83;;;4.23;;
24435;SDS011;12616;52.470;13.436;2023-06-14T14:11:26;5.27;;;4.30;;
24435;SDS011;12616;52.470;13.436;2023-06-14T14:13:54;7.33;;;3.93;;
24435;SDS011;12616;52.470;13.436;2023-06-14T14:16:22;5.50;;;4.23;;
24435;SDS011;12616;52.470;13.436;2023-06-14T14:18:49;9.73;;;4.60;;
24435;SDS011;12616;52.470;13.436;2023-06-14T14:21:17;10.43;;;3.60;;
24435;SDS011;12616;52.470;13.436;2023-06-14T14:23:44;5.30;;;3.73;;
24435;SDS011;12616;52.470;13.436;2023-06-14T14:26:11;6.00;;;4.10;;
24435;SDS011;12616;52.470;13.436;2023-06-14T14:28:38;5.03;;;4.07;;
24435;SDS011;12616;52.470;13.436;2023-06-14T14:31:05;6.83;;;4.20;;
24435;SDS011;12616;52.470;13.436;2023-06-14T14:33:32;7.77;;;4.70;;
24435;SDS011;12616;52.470;13.436;2023-06-14T14:36:00;4.63;;;4.00;;
24435;SDS011;12616;52.470;13.436;2023-06-14T14:38:30;9.40;;;5.33;;
24435;SDS011;12616;52.470;13.436;2023-06-14T14:40:57;6.07;;;3.97;;